Terminal Aerodrome Forecast
Issued by NWS Kansas City/Pleasant Hill, MO

Home | Current Version | Previous Version | Text Only | Print | Product List | Glossary On
Versions: 1 2 3 4 5 6 7 8 9 10 11 12 13 14 15 16 17 18 19 20 21 22 23 24 25 26 27 28
000
FTUS43 KEAX 290520
TAFMCI
TAF
KMCI 290520Z 2906/3006 08014KT P6SM VCSH OVC010
     FM290900 08016G26KT 4SM -RA BR OVC010
     FM291600 08018KT 3SM SHRA BR VCTS OVC003CB
     FM300000 08011KT 3SM BR VCSH OVC008=

USA.gov is the U.S. government's official web portal to all federal, state and local government web resources and services.